| time (UTC) | temp F | wind direction | speed MPH | gust MPH | rain 1hr in | rain 24hr in | rain mn in | humidity % | barometer mb |
| 20260507075313 | 49 | 135 | 0.0 | 6.0 | 0.00 | 0.35 | 0.00 | 85 | 1009.1 |
| 20260507074316 | 48 | 247 | 0.0 | 4.0 | 0.00 | 0.35 | 0.00 | 88 | 1008.8 |
| 20260507073312 | 48 | 270 | 1.0 | 5.0 | 0.00 | 0.35 | 0.00 | 87 | 1008.6 |
| 20260507072312 | 48 | 0 | 0.0 | 3.0 | 0.00 | 0.35 | 0.00 | 88 | 1008.6 |
| 20260507071312 | 48 | 0 | 0.0 | 3.0 | 0.00 | 0.35 | 0.00 | 87 | 1008.6 |
| 20260507070312 | 48 | 292 | 4.0 | 6.0 | 0.00 | 0.35 | 0.00 | 90 | 1008.7 |
| 20260507065312 | 49 | 0 | 0.0 | 0.0 | 0.00 | 0.35 | 0.00 | 89 | 1008.8 |
| 20260507064312 | 48 | 0 | 0.0 | 4.0 | 0.00 | 0.35 | 0.00 | 93 | 1008.8 |
| 20260507063312 | 47 | 0 | 0.0 | 4.0 | 0.00 | 0.35 | 0.00 | 94 | 1008.6 |
| 20260507062312 | 47 | 180 | 4.0 | 8.0 | 0.00 | 0.35 | 0.00 | 94 | 1008.6 |
| 20260507061311 | 46 | 157 | 1.0 | 9.0 | 0.00 | 0.35 | 0.00 | 95 | 1008.3 |
| 20260507060311 | 46 | 180 | 6.0 | 12.0 | 0.00 | 0.35 | 0.00 | 95 | 1008.2 |
| 20260507055311 | 46 | 202 | 4.0 | 7.0 | 0.00 | 0.35 | 0.00 | 95 | 1008.3 |
| 20260507053311 | 46 | 180 | 1.0 | 7.0 | 0.00 | 0.35 | 0.00 | 96 | 1008.6 |
| 20260507052311 | 46 | 180 | 1.0 | 7.0 | 0.00 | 0.35 | 0.00 | 96 | 1008.6 |
| 20260507051310 | 46 | 180 | 4.0 | 7.0 | 0.00 | 0.35 | 0.00 | 96 | 1008.3 |
| 20260507050310 | 46 | 180 | 4.0 | 8.0 | 0.00 | 0.35 | 0.00 | 96 | 1008.3 |
| 20260507045310 | 46 | 180 | 4.0 | 6.0 | 0.00 | 0.35 | 0.00 | 96 | 1008.2 |
| 20260507044310 | 46 | 180 | 1.0 | 7.0 | 0.00 | 0.35 | 0.00 | 96 | 1008.0 |
| 20260507043310 | 46 | 180 | 2.0 | 6.0 | 0.00 | 0.35 | 0.00 | 96 | 1007.9 |
| 20260507042313 | 46 | 180 | 2.0 | 8.0 | 0.00 | 0.35 | 0.00 | 96 | 1007.9 |
| 20260507041310 | 46 | 202 | 0.0 | 6.0 | 0.00 | 0.35 | 0.00 | 96 | 1008.0 |
| 20260507040310 | 46 | 247 | 2.0 | 6.0 | 0.00 | 0.35 | 0.00 | 96 | 1007.9 |
| 20260507035309 | 46 | 0 | 0.0 | 5.0 | 0.00 | 0.35 | 0.00 | 96 | 1007.9 |
| 20260507034309 | 46 | 0 | 0.0 | 2.0 | 0.00 | 0.35 | 0.00 | 96 | 1008.0 |
| 20260507033309 | 47 | 270 | 1.0 | 6.0 | 0.00 | 0.35 | 0.00 | 97 | 1008.1 |
| 20260507031309 | 47 | 180 | 3.0 | 6.0 | 0.00 | 0.35 | 0.00 | 97 | 1008.0 |
| 20260507030314 | 47 | 180 | 1.0 | 7.0 | 0.00 | 0.35 | 0.00 | 97 | 1007.9 |
| 20260507025314 | 47 | 157 | 1.0 | 5.0 | 0.00 | 0.35 | 0.00 | 97 | 1007.9 |
| 20260507024313 | 47 | 202 | 2.0 | 3.0 | 0.00 | 0.35 | 0.00 | 97 | 1008.0 |
| 20260507023313 | 47 | 247 | 0.0 | 6.0 | 0.00 | 0.35 | 0.00 | 98 | 1008.0 |
| 20260507022313 | 47 | 202 | 5.0 | 7.0 | 0.00 | 0.35 | 0.00 | 98 | 1008.0 |
| 20260507021313 | 47 | 180 | 4.0 | 6.0 | 0.00 | 0.35 | 0.00 | 98 | 1008.0 |
| 20260507015313 | 47 | 202 | 5.0 | 7.0 | 0.00 | 0.35 | 0.00 | 98 | 1007.8 |
| 20260507013313 | 47 | 202 | 1.0 | 6.0 | 0.00 | 0.35 | 0.00 | 98 | 1007.5 |
| 20260507012312 | 47 | 202 | 1.0 | 5.0 | 0.00 | 0.35 | 0.00 | 98 | 1007.5 |
| 20260507011312 | 47 | 180 | 0.0 | 5.0 | 0.00 | 0.35 | 0.00 | 98 | 1007.5 |
| 20260507010312 | 47 | 112 | 0.0 | 8.0 | 0.00 | 0.35 | 0.00 | 98 | 1007.5 |
| 20260507005312 | 47 | 270 | 2.0 | 12.0 | 0.00 | 0.35 | 0.00 | 98 | 1007.4 |
| 20260507004312 | 47 | 180 | 1.0 | 7.0 | 0.00 | 0.35 | 0.00 | 98 | 1007.4 |
| 20260507003312 | 47 | 270 | 2.0 | 10.0 | 0.00 | 0.35 | 0.00 | 98 | 1007.3 |
| 20260507002312 | 47 | 202 | 1.0 | 10.0 | 0.00 | 0.35 | 0.00 | 98 | 1007.2 |
| 20260507001312 | 48 | 0 | 0.0 | 5.0 | 0.00 | 0.35 | 0.00 | 99 | 1007.3 |
| 20260507000313 | 48 | 180 | 4.0 | 7.0 | 0.00 | 0.35 | 0.00 | 98 | 1007.2 |
| 20260506235311 | 48 | 180 | 3.0 | 5.0 | 0.00 | 0.35 | 0.00 | 98 | 1007.0 |
| 20260506234311 | 48 | 180 | 3.0 | 7.0 | 0.00 | 0.35 | 0.00 | 98 | 1007.2 |
| 20260506232311 | 48 | 180 | 1.0 | 6.0 | 0.00 | 0.35 | 0.00 | 98 | 1007.3 |
| 20260506230311 | 48 | 180 | 3.0 | 8.0 | 0.00 | 0.35 | 0.00 | 98 | 1006.9 |
| 20260506225311 | 48 | 202 | 3.0 | 7.0 | 0.00 | 0.35 | 0.00 | 98 | 1006.7 |
| 20260506224311 | 48 | 180 | 4.0 | 7.0 | 0.00 | 0.35 | 0.00 | 98 | 1006.6 |
| 20260506223310 | 48 | 180 | 1.0 | 7.0 | 0.00 | 0.35 | 0.00 | 98 | 1006.5 |
| 20260506222310 | 48 | 180 | 1.0 | 12.0 | 0.00 | 0.35 | 0.00 | 97 | 1006.5 |
| 20260506221310 | 49 | 180 | 2.0 | 8.0 | 0.00 | 0.35 | 0.00 | 97 | 1006.0 |
| 20260506220310 | 49 | 180 | 1.0 | 9.0 | 0.00 | 0.35 | 0.35 | 97 | 1005.9 |
| 20260506215310 | 49 | 180 | 2.0 | 7.0 | 0.00 | 0.35 | 0.35 | 97 | 1005.9 |
| 20260506214310 | 49 | 180 | 3.0 | 6.0 | 0.00 | 0.35 | 0.35 | 97 | 1006.1 |
| 20260506213310 | 50 | 292 | 4.0 | 9.0 | 0.00 | 0.35 | 0.35 | 97 | 1006.1 |
| 20260506212311 | 50 | 180 | 1.0 | 8.0 | 0.00 | 0.35 | 0.35 | 97 | 1005.9 |
| 20260506211309 | 50 | 202 | 0.0 | 7.0 | 0.00 | 0.35 | 0.35 | 96 | 1005.7 |
| 20260506210309 | 51 | 292 | 4.0 | 10.0 | 0.00 | 0.35 | 0.35 | 96 | 1005.5 |
| 20260506205314 | 51 | 180 | 5.0 | 14.0 | 0.00 | 0.35 | 0.35 | 96 | 1005.2 |
| 20260506204314 | 51 | 180 | 1.0 | 7.0 | 0.00 | 0.35 | 0.35 | 96 | 1005.2 |
| 20260506203314 | 51 | 180 | 3.0 | 12.0 | 0.00 | 0.35 | 0.35 | 96 | 1004.1 |
| 20260506202314 | 51 | 247 | 0.0 | 3.0 | 0.00 | 0.35 | 0.35 | 96 | 1004.1 |
| 20260506201313 | 51 | 0 | 0.0 | 0.0 | 0.02 | 0.35 | 0.35 | 95 | 1004.0 |
| 20260506200313 | 51 | 0 | 0.0 | 0.0 | 0.06 | 0.38 | 0.35 | 94 | 1003.9 |
| 20260506195313 | 51 | 0 | 0.0 | 0.0 | 0.09 | 0.38 | 0.35 | 95 | 1003.9 |
| 20260506193313 | 51 | 157 | 1.0 | 3.0 | 0.15 | 0.38 | 0.35 | 92 | 1002.5 |
| 20260506192313 | 51 | 315 | 3.0 | 17.0 | 0.20 | 0.38 | 0.35 | 93 | 1002.5 |
| 20260506191312 | 51 | 45 | 5.0 | 9.0 | 0.22 | 0.36 | 0.34 | 92 | 1002.6 |
| 20260506190312 | 51 | 22 | 8.0 | 10.0 | 0.27 | 0.33 | 0.31 | 91 | 1002.6 |
| 20260506185315 | 51 | 22 | 6.0 | 9.0 | 0.25 | 0.31 | 0.26 | 92 | 1003.0 |
| 20260506184312 | 52 | 22 | 4.0 | 7.0 | 0.23 | 0.28 | 0.23 | 91 | 1003.2 |
| 20260506182312 | 53 | 0 | 0.0 | 6.0 | 0.16 | 0.21 | 0.16 | 89 | 1003.6 |
| 20260506180312 | 54 | 337 | 9.0 | 16.0 | 0.04 | 0.09 | 0.04 | 86 | 1002.0 |
| 20260506171311 | 60 | 0 | 0.0 | 4.0 | 0.00 | 0.06 | 0.00 | 55 | 1000.1 |
| 20260506170311 | 61 | 22 | 2.0 | 4.0 | 0.00 | 0.06 | 0.00 | 54 | 1000.1 |
| 20260506165311 | 62 | 0 | 0.0 | 0.0 | 0.00 | 0.06 | 0.00 | 54 | 1000.2 |
| 20260506164311 | 62 | 45 | 1.0 | 3.0 | 0.00 | 0.06 | 0.00 | 49 | 1000.7 |
| 20260506163311 | 62 | 0 | 0.0 | 3.0 | 0.00 | 0.06 | 0.00 | 53 | 1000.8 |
| 20260506162310 | 63 | 0 | 0.0 | 0.0 | 0.00 | 0.06 | 0.00 | 50 | 1000.8 |
| 20260506161310 | 65 | 0 | 0.0 | 1.0 | 0.00 | 0.06 | 0.00 | 40 | 1001.1 |
| 20260506160310 | 66 | 0 | 0.0 | 3.0 | 0.00 | 0.06 | 0.00 | 40 | 1001.3 |
| 20260506155310 | 67 | 202 | 4.0 | 5.0 | 0.00 | 0.06 | 0.00 | 38 | 1001.4 |
| 20260506154310 | 67 | 202 | 1.0 | 7.0 | 0.00 | 0.06 | 0.00 | 31 | 1001.6 |
| 20260506153310 | 67 | 202 | 6.0 | 8.0 | 0.00 | 0.06 | 0.00 | 38 | 1001.6 |
| 20260506152309 | 67 | 180 | 5.0 | 8.0 | 0.00 | 0.06 | 0.00 | 38 | 1001.6 |
| 20260506151310 | 67 | 202 | 2.0 | 6.0 | 0.00 | 0.06 | 0.00 | 39 | 1001.8 |
| 20260506150309 | 68 | 180 | 3.0 | 5.0 | 0.00 | 0.06 | 0.00 | 42 | 1002.3 |
| 20260506145309 | 67 | 180 | 4.0 | 7.0 | 0.00 | 0.06 | 0.00 | 41 | 1002.3 |
| 20260506143314 | 67 | 180 | 2.0 | 13.0 | 0.00 | 0.06 | 0.00 | 41 | 1002.3 |
| 20260506142314 | 67 | 202 | 2.0 | 5.0 | 0.00 | 0.06 | 0.00 | 45 | 1002.4 |
| 20260506141314 | 67 | 180 | 3.0 | 9.0 | 0.00 | 0.06 | 0.00 | 41 | 1002.6 |
| 20260506140314 | 66 | 202 | 2.0 | 8.0 | 0.00 | 0.06 | 0.00 | 47 | 1002.7 |
| 20260506135313 | 67 | 180 | 3.0 | 7.0 | 0.00 | 0.06 | 0.00 | 43 | 1002.9 |
| 20260506134313 | 67 | 202 | 6.0 | 12.0 | 0.00 | 0.06 | 0.00 | 42 | 1002.8 |
| 20260506133313 | 66 | 157 | 1.0 | 7.0 | 0.00 | 0.06 | 0.00 | 42 | 1002.6 |
| 20260506132313 | 66 | 180 | 3.0 | 10.0 | 0.00 | 0.06 | 0.00 | 44 | 1002.8 |
| 20260506131313 | 65 | 0 | 0.0 | 4.0 | 0.00 | 0.06 | 0.00 | 46 | 1003.2 |
| 20260506130313 | 66 | 180 | 5.0 | 8.0 | 0.00 | 0.06 | 0.00 | 50 | 1003.5 |
| 20260506124312 | 66 | 180 | 2.0 | 8.0 | 0.00 | 0.06 | 0.00 | 48 | 1003.5 |
| 20260506123312 | 67 | 270 | 0.0 | 8.0 | 0.00 | 0.06 | 0.00 | 50 | 1004.0 |
| 20260506122312 | 66 | 180 | 0.0 | 10.0 | 0.00 | 0.06 | 0.00 | 53 | 1004.0 |
| 20260506120312 | 66 | 202 | 8.0 | 15.0 | 0.00 | 0.06 | 0.00 | 49 | 1004.1 |
| 20260506115312 | 65 | 180 | 6.0 | 13.0 | 0.00 | 0.06 | 0.00 | 49 | 1004.1 |
| 20260506114312 | 64 | 180 | 2.0 | 6.0 | 0.00 | 0.06 | 0.00 | 50 | 1004.3 |
| 20260506111311 | 64 | 180 | 5.0 | 13.0 | 0.00 | 0.06 | 0.00 | 54 | 1004.3 |
| 20260506105311 | 63 | 202 | 3.0 | 8.0 | 0.00 | 0.06 | 0.00 | 53 | 1004.5 |
| 20260506104311 | 63 | 202 | 5.0 | 7.0 | 0.00 | 0.06 | 0.00 | 58 | 1004.7 |
| 20260506103311 | 62 | 270 | 0.0 | 7.0 | 0.00 | 0.06 | 0.00 | 59 | 1004.5 |
| 20260506101310 | 62 | 90 | 2.0 | 9.0 | 0.00 | 0.06 | 0.00 | 53 | 1004.4 |
| 20260506100310 | 62 | 0 | 0.0 | 6.0 | 0.00 | 0.06 | 0.00 | 59 | 1004.4 |
| 20260506095310 | 61 | 202 | 2.0 | 9.0 | 0.00 | 0.06 | 0.00 | 63 | 1004.3 |
| 20260506094310 | 63 | 90 | 0.0 | 3.0 | 0.00 | 0.06 | 0.00 | 60 | 1004.5 |
| 20260506093310 | 63 | 360 | 0.0 | 4.0 | 0.00 | 0.06 | 0.00 | 59 | 1004.5 |
| 20260506092310 | 60 | 202 | 1.0 | 6.0 | 0.00 | 0.06 | 0.00 | 64 | 1004.3 |
| 20260506091309 | 60 | 0 | 0.0 | 5.0 | 0.00 | 0.06 | 0.00 | 66 | 1004.4 |
| 20260506090309 | 61 | 180 | 2.0 | 6.0 | 0.00 | 0.06 | 0.00 | 66 | 1004.6 |
| 20260506085309 | 58 | 180 | 0.0 | 6.0 | 0.00 | 0.06 | 0.00 | 72 | 1004.3 |
| 20260506084309 | 58 | 135 | 1.0 | 9.0 | 0.00 | 0.06 | 0.00 | 70 | 1004.2 |
| 20260506082309 | 58 | 292 | 3.0 | 6.0 | 0.00 | 0.06 | 0.00 | 67 | 1004.4 |
| 20260506081314 | 57 | 180 | 2.0 | 6.0 | 0.00 | 0.06 | 0.00 | 70 | 1004.1 |